sensor_id;sensor_type;location;lat;lon;timestamp;P1;durP1;ratioP1;P2;durP2;ratioP2
2854;SDS011;1435;49.472;10.940;2023-09-19T00:02:07;2.13;;;1.57;;
2854;SDS011;1435;49.472;10.940;2023-09-19T00:07:09;1.70;;;1.27;;
2854;SDS011;1435;49.472;10.940;2023-09-19T00:12:12;5.43;;;1.70;;
2854;SDS011;1435;49.472;10.940;2023-09-19T00:17:14;1.77;;;1.47;;
2854;SDS011;1435;49.472;10.940;2023-09-19T00:22:16;1.60;;;1.20;;
2854;SDS011;1435;49.472;10.940;2023-09-19T00:27:20;1.43;;;1.10;;
2854;SDS011;1435;49.472;10.940;2023-09-19T00:32:22;2.03;;;1.20;;
2854;SDS011;1435;49.472;10.940;2023-09-19T00:37:24;3.90;;;1.40;;
2854;SDS011;1435;49.472;10.940;2023-09-19T00:42:27;1.10;;;0.97;;
2854;SDS011;1435;49.472;10.940;2023-09-19T00:47:28;1.43;;;1.00;;
2854;SDS011;1435;49.472;10.940;2023-09-19T00:52:31;1.90;;;1.40;;
2854;SDS011;1435;49.472;10.940;2023-09-19T00:57:34;1.67;;;1.20;;
2854;SDS011;1435;49.472;10.940;2023-09-19T01:02:38;2.00;;;1.07;;
2854;SDS011;1435;49.472;10.940;2023-09-19T01:07:39;1.07;;;0.90;;
2854;SDS011;1435;49.472;10.940;2023-09-19T01:12:47;1.20;;;1.10;;
2854;SDS011;1435;49.472;10.940;2023-09-19T01:17:57;1.00;;;0.87;;
2854;SDS011;1435;49.472;10.940;2023-09-19T01:23:10;2.70;;;1.07;;
2854;SDS011;1435;49.472;10.940;2023-09-19T01:28:23;1.17;;;0.90;;
2854;SDS011;1435;49.472;10.940;2023-09-19T01:33:54;1.43;;;1.33;;
2854;SDS011;1435;49.472;10.940;2023-09-19T01:39:01;1.50;;;1.17;;
2854;SDS011;1435;49.472;10.940;2023-09-19T01:44:11;1.60;;;1.10;;
2854;SDS011;1435;49.472;10.940;2023-09-19T01:49:25;1.40;;;0.97;;
2854;SDS011;1435;49.472;10.940;2023-09-19T01:54:36;1.33;;;0.90;;
2854;SDS011;1435;49.472;10.940;2023-09-19T01:59:47;1.53;;;1.10;;
2854;SDS011;1435;49.472;10.940;2023-09-19T02:04:54;1.20;;;1.10;;
2854;SDS011;1435;49.472;10.940;2023-09-19T02:09:56;1.10;;;1.00;;
2854;SDS011;1435;49.472;10.940;2023-09-19T02:14:59;5.43;;;1.10;;
2854;SDS011;1435;49.472;10.940;2023-09-19T02:20:02;1.07;;;0.80;;
2854;SDS011;1435;49.472;10.940;2023-09-19T02:25:10;2.50;;;1.23;;
2854;SDS011;1435;49.472;10.940;2023-09-19T02:30:13;1.70;;;1.23;;
2854;SDS011;1435;49.472;10.940;2023-09-19T02:35:17;1.70;;;1.00;;
2854;SDS011;1435;49.472;10.940;2023-09-19T02:40:19;1.40;;;1.30;;
2854;SDS011;1435;49.472;10.940;2023-09-19T02:45:22;0.90;;;0.90;;
2854;SDS011;1435;49.472;10.940;2023-09-19T02:50:25;1.20;;;1.10;;
2854;SDS011;1435;49.472;10.940;2023-09-19T02:55:27;1.53;;;1.37;;
2854;SDS011;1435;49.472;10.940;2023-09-19T03:00:29;1.73;;;0.90;;
2854;SDS011;1435;49.472;10.940;2023-09-19T03:05:32;1.50;;;1.40;;
2854;SDS011;1435;49.472;10.940;2023-09-19T03:10:34;1.40;;;1.30;;
2854;SDS011;1435;49.472;10.940;2023-09-19T03:15:40;2.60;;;1.20;;
2854;SDS011;1435;49.472;10.940;2023-09-19T03:20:45;1.57;;;1.20;;
2854;SDS011;1435;49.472;10.940;2023-09-19T03:25:55;2.20;;;1.30;;
2854;SDS011;1435;49.472;10.940;2023-09-19T03:30:58;1.37;;;1.00;;
2854;SDS011;1435;49.472;10.940;2023-09-19T03:36:03;1.53;;;1.30;;
2854;SDS011;1435;49.472;10.940;2023-09-19T03:41:06;3.43;;;1.53;;
2854;SDS011;1435;49.472;10.940;2023-09-19T03:46:07;2.20;;;1.30;;
2854;SDS011;1435;49.472;10.940;2023-09-19T03:51:10;1.40;;;1.30;;
2854;SDS011;1435;49.472;10.940;2023-09-19T03:56:12;2.13;;;1.23;;
2854;SDS011;1435;49.472;10.940;2023-09-19T04:01:14;1.93;;;1.73;;
2854;SDS011;1435;49.472;10.940;2023-09-19T04:06:18;2.67;;;1.63;;
2854;SDS011;1435;49.472;10.940;2023-09-19T04:11:20;2.53;;;1.33;;
2854;SDS011;1435;49.472;10.940;2023-09-19T04:16:22;1.90;;;1.00;;
2854;SDS011;1435;49.472;10.940;2023-09-19T04:21:25;1.57;;;1.47;;
2854;SDS011;1435;49.472;10.940;2023-09-19T04:26:28;1.67;;;1.20;;
2854;SDS011;1435;49.472;10.940;2023-09-19T04:31:29;2.37;;;1.63;;
2854;SDS011;1435;49.472;10.940;2023-09-19T04:36:33;2.53;;;1.20;;
2854;SDS011;1435;49.472;10.940;2023-09-19T04:41:36;1.40;;;1.30;;
2854;SDS011;1435;49.472;10.940;2023-09-19T04:46:41;1.47;;;1.27;;
2854;SDS011;1435;49.472;10.940;2023-09-19T04:51:44;1.60;;;1.33;;
2854;SDS011;1435;49.472;10.940;2023-09-19T04:56:47;1.13;;;1.00;;
2854;SDS011;1435;49.472;10.940;2023-09-19T05:01:48;1.87;;;1.27;;
2854;SDS011;1435;49.472;10.940;2023-09-19T05:06:51;1.57;;;1.33;;
2854;SDS011;1435;49.472;10.940;2023-09-19T05:11:53;2.30;;;1.57;;
2854;SDS011;1435;49.472;10.940;2023-09-19T05:16:56;2.40;;;1.37;;
2854;SDS011;1435;49.472;10.940;2023-09-19T05:21:59;1.73;;;1.33;;
2854;SDS011;1435;49.472;10.940;2023-09-19T05:27:01;2.17;;;1.47;;
2854;SDS011;1435;49.472;10.940;2023-09-19T05:32:04;4.27;;;1.47;;
2854;SDS011;1435;49.472;10.940;2023-09-19T05:37:08;1.80;;;1.17;;
2854;SDS011;1435;49.472;10.940;2023-09-19T05:42:09;3.30;;;1.30;;
2854;SDS011;1435;49.472;10.940;2023-09-19T05:47:11;1.60;;;1.50;;
2854;SDS011;1435;49.472;10.940;2023-09-19T05:52:14;1.83;;;1.73;;
2854;SDS011;1435;49.472;10.940;2023-09-19T05:57:17;2.77;;;1.47;;
2854;SDS011;1435;49.472;10.940;2023-09-19T06:02:19;2.10;;;1.50;;
2854;SDS011;1435;49.472;10.940;2023-09-19T06:07:22;1.83;;;1.60;;
2854;SDS011;1435;49.472;10.940;2023-09-19T06:12:28;1.87;;;1.47;;
2854;SDS011;1435;49.472;10.940;2023-09-19T06:17:30;1.70;;;1.60;;
2854;SDS011;1435;49.472;10.940;2023-09-19T06:22:33;1.90;;;1.53;;
2854;SDS011;1435;49.472;10.940;2023-09-19T06:27:36;2.00;;;1.30;;
2854;SDS011;1435;49.472;10.940;2023-09-19T06:32:38;1.67;;;1.40;;
2854;SDS011;1435;49.472;10.940;2023-09-19T06:37:41;1.70;;;1.50;;
2854;SDS011;1435;49.472;10.940;2023-09-19T06:42:44;2.33;;;1.57;;
2854;SDS011;1435;49.472;10.940;2023-09-19T06:47:47;1.70;;;1.50;;
2854;SDS011;1435;49.472;10.940;2023-09-19T06:52:52;2.50;;;1.60;;
2854;SDS011;1435;49.472;10.940;2023-09-19T06:57:55;2.10;;;1.63;;
2854;SDS011;1435;49.472;10.940;2023-09-19T07:02:57;2.20;;;2.00;;
2854;SDS011;1435;49.472;10.940;2023-09-19T07:08:02;1.83;;;1.70;;
2854;SDS011;1435;49.472;10.940;2023-09-19T07:13:05;2.47;;;2.07;;
2854;SDS011;1435;49.472;10.940;2023-09-19T07:18:09;2.00;;;1.40;;
2854;SDS011;1435;49.472;10.940;2023-09-19T07:23:13;2.77;;;2.07;;
2854;SDS011;1435;49.472;10.940;2023-09-19T07:28:16;3.83;;;2.53;;
2854;SDS011;1435;49.472;10.940;2023-09-19T07:33:18;1.97;;;1.63;;
2854;SDS011;1435;49.472;10.940;2023-09-19T07:38:21;3.13;;;2.00;;
2854;SDS011;1435;49.472;10.940;2023-09-19T07:43:23;3.13;;;1.67;;
2854;SDS011;1435;49.472;10.940;2023-09-19T07:48:25;4.47;;;1.67;;
2854;SDS011;1435;49.472;10.940;2023-09-19T07:53:28;2.30;;;1.70;;
2854;SDS011;1435;49.472;10.940;2023-09-19T07:58:33;3.90;;;1.50;;
2854;SDS011;1435;49.472;10.940;2023-09-19T08:03:36;1.90;;;1.67;;
2854;SDS011;1435;49.472;10.940;2023-09-19T08:08:41;1.37;;;1.27;;
2854;SDS011;1435;49.472;10.940;2023-09-19T08:13:43;3.07;;;2.00;;
2854;SDS011;1435;49.472;10.940;2023-09-19T08:18:46;2.17;;;1.70;;
2854;SDS011;1435;49.472;10.940;2023-09-19T08:23:50;1.80;;;1.63;;
2854;SDS011;1435;49.472;10.940;2023-09-19T08:28:52;2.70;;;2.00;;
2854;SDS011;1435;49.472;10.940;2023-09-19T08:33:55;2.37;;;1.37;;
2854;SDS011;1435;49.472;10.940;2023-09-19T08:38:58;3.33;;;1.60;;
2854;SDS011;1435;49.472;10.940;2023-09-19T08:44:00;2.57;;;1.73;;
2854;SDS011;1435;49.472;10.940;2023-09-19T08:49:03;2.07;;;1.60;;
2854;SDS011;1435;49.472;10.940;2023-09-19T08:54:09;4.83;;;1.70;;
2854;SDS011;1435;49.472;10.940;2023-09-19T08:59:20;4.33;;;1.87;;
2854;SDS011;1435;49.472;10.940;2023-09-19T09:04:25;3.13;;;2.20;;
2854;SDS011;1435;49.472;10.940;2023-09-19T09:09:29;2.20;;;1.70;;
2854;SDS011;1435;49.472;10.940;2023-09-19T09:14:31;4.47;;;2.93;;
2854;SDS011;1435;49.472;10.940;2023-09-19T09:19:34;1.47;;;1.37;;
2854;SDS011;1435;49.472;10.940;2023-09-19T09:24:51;4.60;;;1.70;;
2854;SDS011;1435;49.472;10.940;2023-09-19T09:29:55;1.20;;;1.10;;
2854;SDS011;1435;49.472;10.940;2023-09-19T09:34:57;1.77;;;1.40;;
2854;SDS011;1435;49.472;10.940;2023-09-19T09:40:02;1.57;;;1.23;;
2854;SDS011;1435;49.472;10.940;2023-09-19T09:45:20;2.10;;;1.50;;
2854;SDS011;1435;49.472;10.940;2023-09-19T09:50:37;2.30;;;1.30;;
2854;SDS011;1435;49.472;10.940;2023-09-19T09:55:57;3.10;;;1.10;;
2854;SDS011;1435;49.472;10.940;2023-09-19T10:01:00;3.50;;;1.80;;
2854;SDS011;1435;49.472;10.940;2023-09-19T10:06:09;3.53;;;1.47;;
2854;SDS011;1435;49.472;10.940;2023-09-19T10:11:26;1.90;;;1.80;;
2854;SDS011;1435;49.472;10.940;2023-09-19T10:16:30;2.23;;;1.60;;
2854;SDS011;1435;49.472;10.940;2023-09-19T10:21:33;2.67;;;1.93;;
2854;SDS011;1435;49.472;10.940;2023-09-19T10:26:38;2.67;;;1.80;;
2854;SDS011;1435;49.472;10.940;2023-09-19T10:31:43;2.40;;;1.97;;
2854;SDS011;1435;49.472;10.940;2023-09-19T10:36:48;2.20;;;2.00;;
2854;SDS011;1435;49.472;10.940;2023-09-19T10:41:55;3.53;;;2.17;;
2854;SDS011;1435;49.472;10.940;2023-09-19T10:46:59;3.13;;;2.10;;
2854;SDS011;1435;49.472;10.940;2023-09-19T10:52:01;2.33;;;2.20;;
2854;SDS011;1435;49.472;10.940;2023-09-19T10:57:12;3.40;;;2.30;;
2854;SDS011;1435;49.472;10.940;2023-09-19T11:02:17;2.60;;;2.40;;
2854;SDS011;1435;49.472;10.940;2023-09-19T11:07:19;2.63;;;2.23;;
2854;SDS011;1435;49.472;10.940;2023-09-19T11:17:52;2.20;;;1.90;;
2854;SDS011;1435;49.472;10.940;2023-09-19T11:28:30;3.20;;;2.87;;
2854;SDS011;1435;49.472;10.940;2023-09-19T11:33:33;3.30;;;2.10;;
2854;SDS011;1435;49.472;10.940;2023-09-19T11:38:57;2.73;;;1.57;;
2854;SDS011;1435;49.472;10.940;2023-09-19T11:49:38;2.77;;;1.87;;
2854;SDS011;1435;49.472;10.940;2023-09-19T11:54:42;3.00;;;1.80;;
2854;SDS011;1435;49.472;10.940;2023-09-19T11:59:48;2.17;;;1.80;;
2854;SDS011;1435;49.472;10.940;2023-09-19T12:04:53;1.93;;;1.30;;
2854;SDS011;1435;49.472;10.940;2023-09-19T12:10:02;1.43;;;1.33;;
2854;SDS011;1435;49.472;10.940;2023-09-19T12:15:07;2.03;;;1.17;;
2854;SDS011;1435;49.472;10.940;2023-09-19T12:20:10;1.50;;;1.40;;
2854;SDS011;1435;49.472;10.940;2023-09-19T12:25:12;2.23;;;1.20;;
2854;SDS011;1435;49.472;10.940;2023-09-19T12:30:18;2.30;;;1.63;;
2854;SDS011;1435;49.472;10.940;2023-09-19T12:35:26;1.40;;;1.20;;
2854;SDS011;1435;49.472;10.940;2023-09-19T12:40:30;2.37;;;1.40;;
2854;SDS011;1435;49.472;10.940;2023-09-19T12:45:35;3.60;;;1.53;;
2854;SDS011;1435;49.472;10.940;2023-09-19T12:50:40;2.30;;;1.50;;
2854;SDS011;1435;49.472;10.940;2023-09-19T12:56:05;2.93;;;1.60;;
2854;SDS011;1435;49.472;10.940;2023-09-19T13:01:15;1.80;;;1.40;;
2854;SDS011;1435;49.472;10.940;2023-09-19T13:06:34;2.10;;;1.30;;
2854;SDS011;1435;49.472;10.940;2023-09-19T13:11:38;1.67;;;1.50;;
2854;SDS011;1435;49.472;10.940;2023-09-19T13:16:59;3.67;;;1.60;;
2854;SDS011;1435;49.472;10.940;2023-09-19T13:27:40;3.47;;;1.60;;
2854;SDS011;1435;49.472;10.940;2023-09-19T13:32:45;1.87;;;1.20;;
2854;SDS011;1435;49.472;10.940;2023-09-19T13:37:47;4.07;;;1.60;;
2854;SDS011;1435;49.472;10.940;2023-09-19T13:42:51;2.10;;;1.70;;
2854;SDS011;1435;49.472;10.940;2023-09-19T13:47:55;1.80;;;1.33;;
2854;SDS011;1435;49.472;10.940;2023-09-19T13:52:57;2.10;;;1.33;;
2854;SDS011;1435;49.472;10.940;2023-09-19T13:58:00;2.80;;;1.30;;
2854;SDS011;1435;49.472;10.940;2023-09-19T14:03:04;1.80;;;1.33;;
2854;SDS011;1435;49.472;10.940;2023-09-19T14:08:06;2.17;;;1.40;;
2854;SDS011;1435;49.472;10.940;2023-09-19T14:13:08;1.33;;;1.23;;
2854;SDS011;1435;49.472;10.940;2023-09-19T14:18:12;2.40;;;1.57;;
2854;SDS011;1435;49.472;10.940;2023-09-19T14:23:14;1.50;;;1.40;;
2854;SDS011;1435;49.472;10.940;2023-09-19T14:28:15;2.20;;;1.70;;
2854;SDS011;1435;49.472;10.940;2023-09-19T14:33:18;2.33;;;1.27;;
2854;SDS011;1435;49.472;10.940;2023-09-19T14:38:20;2.40;;;1.50;;
2854;SDS011;1435;49.472;10.940;2023-09-19T14:43:22;1.80;;;1.17;;
2854;SDS011;1435;49.472;10.940;2023-09-19T14:48:25;1.50;;;1.13;;
2854;SDS011;1435;49.472;10.940;2023-09-19T14:53:26;1.30;;;0.87;;
2854;SDS011;1435;49.472;10.940;2023-09-19T14:58:28;2.77;;;1.10;;
2854;SDS011;1435;49.472;10.940;2023-09-19T15:03:32;2.23;;;0.90;;
2854;SDS011;1435;49.472;10.940;2023-09-19T15:08:35;2.60;;;1.13;;
2854;SDS011;1435;49.472;10.940;2023-09-19T15:13:40;2.80;;;1.40;;
2854;SDS011;1435;49.472;10.940;2023-09-19T15:18:44;1.27;;;0.97;;
2854;SDS011;1435;49.472;10.940;2023-09-19T15:23:47;1.37;;;1.10;;
2854;SDS011;1435;49.472;10.940;2023-09-19T15:28:49;2.20;;;1.50;;
2854;SDS011;1435;49.472;10.940;2023-09-19T15:33:52;1.40;;;1.07;;
2854;SDS011;1435;49.472;10.940;2023-09-19T15:38:58;1.00;;;0.90;;
2854;SDS011;1435;49.472;10.940;2023-09-19T15:44:01;1.63;;;1.30;;
2854;SDS011;1435;49.472;10.940;2023-09-19T15:49:05;1.53;;;1.40;;
2854;SDS011;1435;49.472;10.940;2023-09-19T15:54:07;1.20;;;1.03;;
2854;SDS011;1435;49.472;10.940;2023-09-19T15:59:11;1.13;;;1.03;;
2854;SDS011;1435;49.472;10.940;2023-09-19T16:04:14;1.00;;;1.00;;
2854;SDS011;1435;49.472;10.940;2023-09-19T16:09:17;1.20;;;0.90;;
2854;SDS011;1435;49.472;10.940;2023-09-19T16:14:18;1.47;;;1.30;;
2854;SDS011;1435;49.472;10.940;2023-09-19T16:19:21;2.67;;;1.43;;
2854;SDS011;1435;49.472;10.940;2023-09-19T16:24:23;2.60;;;1.20;;
2854;SDS011;1435;49.472;10.940;2023-09-19T16:29:25;1.73;;;1.10;;
2854;SDS011;1435;49.472;10.940;2023-09-19T16:34:28;2.10;;;0.90;;
2854;SDS011;1435;49.472;10.940;2023-09-19T16:39:30;1.57;;;1.40;;
2854;SDS011;1435;49.472;10.940;2023-09-19T16:44:32;1.53;;;1.27;;
2854;SDS011;1435;49.472;10.940;2023-09-19T16:49:35;1.80;;;1.40;;
2854;SDS011;1435;49.472;10.940;2023-09-19T16:54:37;2.60;;;1.10;;
2854;SDS011;1435;49.472;10.940;2023-09-19T16:59:39;3.27;;;1.40;;
2854;SDS011;1435;49.472;10.940;2023-09-19T17:04:43;1.57;;;1.33;;
2854;SDS011;1435;49.472;10.940;2023-09-19T17:09:44;3.13;;;1.70;;
2854;SDS011;1435;49.472;10.940;2023-09-19T17:14:46;3.30;;;1.30;;
2854;SDS011;1435;49.472;10.940;2023-09-19T17:19:49;2.03;;;1.13;;
2854;SDS011;1435;49.472;10.940;2023-09-19T17:24:51;1.97;;;1.20;;
2854;SDS011;1435;49.472;10.940;2023-09-19T17:29:53;2.10;;;1.30;;
2854;SDS011;1435;49.472;10.940;2023-09-19T17:34:56;3.30;;;1.60;;
2854;SDS011;1435;49.472;10.940;2023-09-19T17:39:58;2.30;;;1.43;;
2854;SDS011;1435;49.472;10.940;2023-09-19T17:45:04;2.77;;;1.47;;
2854;SDS011;1435;49.472;10.940;2023-09-19T17:50:08;3.90;;;1.33;;
2854;SDS011;1435;49.472;10.940;2023-09-19T17:55:12;1.30;;;1.13;;
2854;SDS011;1435;49.472;10.940;2023-09-19T18:00:16;2.27;;;0.97;;
2854;SDS011;1435;49.472;10.940;2023-09-19T18:05:20;2.40;;;1.40;;
2854;SDS011;1435;49.472;10.940;2023-09-19T18:10:21;1.10;;;0.90;;
2854;SDS011;1435;49.472;10.940;2023-09-19T18:15:23;2.27;;;1.30;;
2854;SDS011;1435;49.472;10.940;2023-09-19T18:20:27;4.40;;;1.20;;
2854;SDS011;1435;49.472;10.940;2023-09-19T18:25:28;2.33;;;1.43;;
2854;SDS011;1435;49.472;10.940;2023-09-19T18:30:31;1.83;;;1.67;;
2854;SDS011;1435;49.472;10.940;2023-09-19T18:35:35;1.60;;;1.50;;
2854;SDS011;1435;49.472;10.940;2023-09-19T18:40:41;2.17;;;1.60;;
2854;SDS011;1435;49.472;10.940;2023-09-19T18:45:43;1.63;;;1.53;;
2854;SDS011;1435;49.472;10.940;2023-09-19T18:50:56;2.03;;;1.40;;
2854;SDS011;1435;49.472;10.940;2023-09-19T18:56:04;1.33;;;1.20;;
2854;SDS011;1435;49.472;10.940;2023-09-19T19:01:07;1.43;;;1.27;;
2854;SDS011;1435;49.472;10.940;2023-09-19T19:06:12;1.30;;;1.20;;
2854;SDS011;1435;49.472;10.940;2023-09-19T19:11:15;1.70;;;1.60;;
2854;SDS011;1435;49.472;10.940;2023-09-19T19:16:19;2.40;;;1.63;;
2854;SDS011;1435;49.472;10.940;2023-09-19T19:21:22;1.80;;;1.40;;
2854;SDS011;1435;49.472;10.940;2023-09-19T19:26:24;3.93;;;2.03;;
2854;SDS011;1435;49.472;10.940;2023-09-19T19:31:26;1.70;;;1.47;;
2854;SDS011;1435;49.472;10.940;2023-09-19T19:36:31;1.83;;;1.30;;
2854;SDS011;1435;49.472;10.940;2023-09-19T19:41:34;2.13;;;1.57;;
2854;SDS011;1435;49.472;10.940;2023-09-19T19:46:38;4.27;;;1.93;;
2854;SDS011;1435;49.472;10.940;2023-09-19T19:51:41;2.00;;;1.40;;
2854;SDS011;1435;49.472;10.940;2023-09-19T19:56:44;4.00;;;2.00;;
2854;SDS011;1435;49.472;10.940;2023-09-19T20:01:47;2.07;;;1.50;;
2854;SDS011;1435;49.472;10.940;2023-09-19T20:06:50;2.97;;;1.93;;
2854;SDS011;1435;49.472;10.940;2023-09-19T20:11:52;2.50;;;1.73;;
2854;SDS011;1435;49.472;10.940;2023-09-19T20:16:56;1.57;;;1.47;;
2854;SDS011;1435;49.472;10.940;2023-09-19T20:22:01;4.30;;;1.60;;
2854;SDS011;1435;49.472;10.940;2023-09-19T20:27:05;1.80;;;1.40;;
2854;SDS011;1435;49.472;10.940;2023-09-19T20:32:07;2.20;;;1.47;;
2854;SDS011;1435;49.472;10.940;2023-09-19T20:37:12;1.60;;;1.50;;
2854;SDS011;1435;49.472;10.940;2023-09-19T20:42:15;1.70;;;1.60;;
2854;SDS011;1435;49.472;10.940;2023-09-19T20:47:17;3.10;;;2.00;;
2854;SDS011;1435;49.472;10.940;2023-09-19T20:52:20;5.47;;;2.23;;
2854;SDS011;1435;49.472;10.940;2023-09-19T20:57:22;2.40;;;2.20;;
2854;SDS011;1435;49.472;10.940;2023-09-19T21:02:24;2.40;;;1.80;;
2854;SDS011;1435;49.472;10.940;2023-09-19T21:07:27;3.67;;;1.73;;
2854;SDS011;1435;49.472;10.940;2023-09-19T21:12:29;2.20;;;2.00;;
2854;SDS011;1435;49.472;10.940;2023-09-19T21:17:32;3.57;;;2.90;;
2854;SDS011;1435;49.472;10.940;2023-09-19T21:22:43;2.93;;;1.93;;
2854;SDS011;1435;49.472;10.940;2023-09-19T21:27:45;2.20;;;1.90;;
2854;SDS011;1435;49.472;10.940;2023-09-19T21:32:47;2.27;;;1.80;;
2854;SDS011;1435;49.472;10.940;2023-09-19T21:37:50;2.50;;;2.30;;
2854;SDS011;1435;49.472;10.940;2023-09-19T21:42:52;2.70;;;2.17;;
2854;SDS011;1435;49.472;10.940;2023-09-19T21:47:54;3.03;;;2.30;;
2854;SDS011;1435;49.472;10.940;2023-09-19T21:52:57;2.60;;;2.10;;
2854;SDS011;1435;49.472;10.940;2023-09-19T21:57:59;3.53;;;2.30;;
2854;SDS011;1435;49.472;10.940;2023-09-19T22:03:01;2.13;;;1.93;;
2854;SDS011;1435;49.472;10.940;2023-09-19T22:08:05;2.80;;;2.17;;
2854;SDS011;1435;49.472;10.940;2023-09-19T22:13:08;2.30;;;2.10;;
2854;SDS011;1435;49.472;10.940;2023-09-19T22:18:14;2.17;;;1.97;;
2854;SDS011;1435;49.472;10.940;2023-09-19T22:23:20;2.60;;;1.90;;
2854;SDS011;1435;49.472;10.940;2023-09-19T22:28:25;2.40;;;2.20;;
2854;SDS011;1435;49.472;10.940;2023-09-19T22:33:28;4.13;;;2.20;;
2854;SDS011;1435;49.472;10.940;2023-09-19T22:38:32;2.50;;;2.30;;
2854;SDS011;1435;49.472;10.940;2023-09-19T22:43:35;2.63;;;2.20;;
2854;SDS011;1435;49.472;10.940;2023-09-19T22:48:45;2.20;;;1.70;;
2854;SDS011;1435;49.472;10.940;2023-09-19T22:53:48;2.23;;;2.03;;
2854;SDS011;1435;49.472;10.940;2023-09-19T22:58:51;2.27;;;2.07;;
2854;SDS011;1435;49.472;10.940;2023-09-19T23:03:54;2.77;;;2.50;;
2854;SDS011;1435;49.472;10.940;2023-09-19T23:09:15;3.30;;;2.30;;
2854;SDS011;1435;49.472;10.940;2023-09-19T23:14:21;3.13;;;2.20;;
2854;SDS011;1435;49.472;10.940;2023-09-19T23:19:28;1.83;;;1.70;;
2854;SDS011;1435;49.472;10.940;2023-09-19T23:24:32;3.53;;;2.20;;
2854;SDS011;1435;49.472;10.940;2023-09-19T23:29:37;4.10;;;2.07;;
2854;SDS011;1435;49.472;10.940;2023-09-19T23:34:39;1.73;;;1.63;;
2854;SDS011;1435;49.472;10.940;2023-09-19T23:39:42;2.50;;;2.27;;
2854;SDS011;1435;49.472;10.940;2023-09-19T23:44:45;1.63;;;1.53;;
2854;SDS011;1435;49.472;10.940;2023-09-19T23:49:48;1.87;;;1.77;;
2854;SDS011;1435;49.472;10.940;2023-09-19T23:54:51;3.70;;;2.40;;
2854;SDS011;1435;49.472;10.940;2023-09-19T23:59:53;1.80;;;1.70;;
